createdAt,value
2024-03-12T00:01:45.103Z,2.67
2024-03-12T00:04:12.780Z,2.08
2024-03-12T00:06:43.726Z,1.73
2024-03-12T00:09:11.315Z,1.85
2024-03-12T00:11:38.814Z,1.80
2024-03-12T00:14:06.286Z,2.20
2024-03-12T00:16:35.487Z,2.33
2024-03-12T00:19:04.220Z,2.15
2024-03-12T00:21:31.944Z,2.20
2024-03-12T00:24:00.419Z,2.53
2024-03-12T00:26:29.734Z,2.47
2024-03-12T00:28:57.061Z,2.85
2024-03-12T00:31:25.982Z,2.78
2024-03-12T00:33:53.619Z,2.80
2024-03-12T00:36:20.948Z,2.58
2024-03-12T00:38:48.354Z,2.70
2024-03-12T00:41:15.789Z,2.25
2024-03-12T00:43:43.933Z,2.05
2024-03-12T00:46:12.210Z,2.17
2024-03-12T00:48:39.557Z,2.30
2024-03-12T00:51:06.963Z,2.58
2024-03-12T00:53:34.298Z,2.88
2024-03-12T00:56:02.833Z,2.05
2024-03-12T00:58:30.303Z,2.40
2024-03-12T01:00:59.344Z,1.85
2024-03-12T01:03:27.689Z,2.33
2024-03-12T01:05:55.373Z,2.15
2024-03-12T01:08:23.283Z,1.85
2024-03-12T01:10:50.596Z,1.65
2024-03-12T01:13:18.018Z,2.35
2024-03-12T01:15:47.164Z,2.55
2024-03-12T01:18:14.597Z,2.50
2024-03-12T01:20:41.865Z,2.30
2024-03-12T01:23:10.161Z,2.35
2024-03-12T01:25:38.527Z,2.78
2024-03-12T01:28:08.310Z,2.72
2024-03-12T01:30:38.136Z,2.60
2024-03-12T01:33:07.671Z,2.60
2024-03-12T01:35:40.824Z,2.70
2024-03-12T01:38:11.904Z,2.22
2024-03-12T01:40:40.704Z,2.72
2024-03-12T01:43:08.961Z,2.35
2024-03-12T01:45:37.962Z,2.50
2024-03-12T01:48:09.535Z,2.25
2024-03-12T01:50:41.129Z,2.78
2024-03-12T01:53:09.920Z,2.92
2024-03-12T01:55:45.945Z,2.78
2024-03-12T01:58:19.864Z,2.83
2024-03-12T02:00:48.293Z,2.42
2024-03-12T02:03:20.348Z,2.20
2024-03-12T02:05:49.550Z,2.10
2024-03-12T02:08:18.184Z,2.30
2024-03-12T02:10:47.399Z,2.15
2024-03-12T02:13:14.988Z,2.22
2024-03-12T02:15:43.272Z,1.98
2024-03-12T02:18:10.999Z,1.80
2024-03-12T02:20:39.676Z,1.90
2024-03-12T02:23:07.324Z,1.85
2024-03-12T02:25:34.665Z,1.88
2024-03-12T02:28:04.418Z,2.10
2024-03-12T02:30:32.391Z,2.00
2024-03-12T02:32:59.806Z,1.90
2024-03-12T02:35:28.534Z,2.03
2024-03-12T02:37:56.465Z,2.25
2024-03-12T02:40:25.445Z,2.20
2024-03-12T02:42:53.035Z,1.95
2024-03-12T02:45:22.505Z,1.83
2024-03-12T02:47:50.101Z,2.03
2024-03-12T02:50:17.852Z,2.20
2024-03-12T02:52:47.035Z,2.15
2024-03-12T02:55:15.013Z,1.95
2024-03-12T02:57:42.968Z,1.63
2024-03-12T03:00:14.711Z,1.67
2024-03-12T03:02:45.976Z,2.00
2024-03-12T03:05:14.720Z,1.58
2024-03-12T03:07:42.654Z,1.67
2024-03-12T03:10:12.345Z,1.98
2024-03-12T03:12:41.142Z,1.40
2024-03-12T03:15:13.692Z,1.75
2024-03-12T03:17:45.129Z,1.75
2024-03-12T03:20:13.896Z,2.08
2024-03-12T03:22:41.361Z,1.52
2024-03-12T03:25:10.578Z,1.65
2024-03-12T03:27:37.898Z,1.92
2024-03-12T03:30:08.406Z,1.70
2024-03-12T03:32:36.867Z,1.70
2024-03-12T03:35:08.306Z,1.75
2024-03-12T03:37:41.927Z,2.08
2024-03-12T03:40:12.707Z,2.22
2024-03-12T03:42:40.787Z,1.65
2024-03-12T03:45:08.389Z,1.92
2024-03-12T03:47:36.274Z,2.00
2024-03-12T03:50:08.766Z,1.75
2024-03-12T03:52:36.528Z,2.10
2024-03-12T03:55:05.320Z,1.80
2024-03-12T03:57:33.152Z,1.92
2024-03-12T04:00:00.873Z,2.03
2024-03-12T04:02:28.518Z,2.08
2024-03-12T04:04:56.050Z,2.13
2024-03-12T04:07:26.670Z,2.42
2024-03-12T04:09:56.112Z,2.67
2024-03-12T04:12:24.065Z,3.03
2024-03-12T04:14:51.780Z,2.33
2024-03-12T04:17:21.010Z,2.03
2024-03-12T04:19:49.872Z,2.10
2024-03-12T04:22:20.689Z,2.55
2024-03-12T04:24:48.257Z,2.13
2024-03-12T04:27:16.436Z,2.40
2024-03-12T04:29:44.086Z,2.35
2024-03-12T04:32:11.595Z,2.30
2024-03-12T04:34:39.073Z,1.90
2024-03-12T04:37:06.613Z,2.78
2024-03-12T04:39:34.173Z,2.50
2024-03-12T04:42:10.412Z,2.47
2024-03-12T04:44:37.845Z,2.47
2024-03-12T04:47:05.466Z,2.58
2024-03-12T04:49:32.871Z,1.75
2024-03-12T04:52:00.425Z,2.47
2024-03-12T04:54:28.497Z,2.35
2024-03-12T04:56:58.314Z,2.88
2024-03-12T04:59:25.671Z,2.38
2024-03-12T05:01:53.875Z,2.25
2024-03-12T05:04:26.317Z,1.83
2024-03-12T05:06:53.758Z,2.03
2024-03-12T05:09:21.179Z,2.47
2024-03-12T05:11:49.439Z,2.30
2024-03-12T05:14:18.264Z,1.88
2024-03-12T05:16:45.921Z,2.63
2024-03-12T05:19:13.562Z,2.40
2024-03-12T05:21:41.132Z,2.40
2024-03-12T05:24:08.717Z,2.53
2024-03-12T05:26:45.279Z,2.50
2024-03-12T05:29:13.518Z,2.50
2024-03-12T05:31:40.924Z,2.55
2024-03-12T05:34:19.269Z,3.05
2024-03-12T05:36:50.082Z,2.67
2024-03-12T05:39:22.301Z,2.45
2024-03-12T05:42:12.826Z,2.75
2024-03-12T05:44:58.790Z,3.28
2024-03-12T05:47:45.755Z,3.03
2024-03-12T05:50:18.386Z,3.25
2024-03-12T05:52:49.748Z,2.60
2024-03-12T05:55:17.362Z,2.80
2024-03-12T05:57:48.339Z,2.50
2024-03-12T06:00:16.900Z,2.88
2024-03-12T06:02:44.873Z,2.92
2024-03-12T06:05:15.028Z,2.50
2024-03-12T06:07:43.489Z,3.03
2024-03-12T06:10:11.213Z,3.45
2024-03-12T06:12:39.711Z,3.22
2024-03-12T06:15:07.882Z,3.22
2024-03-12T06:17:36.141Z,3.10
2024-03-12T06:20:09.281Z,3.38
2024-03-12T06:22:38.499Z,3.38
2024-03-12T06:25:07.126Z,2.83
2024-03-12T06:27:35.168Z,3.38
2024-03-12T06:30:02.483Z,3.00
2024-03-12T06:32:33.062Z,3.28
2024-03-12T06:35:00.581Z,3.33
2024-03-12T06:37:31.123Z,2.78
2024-03-12T06:40:00.265Z,2.88
2024-03-12T06:42:31.217Z,2.50
2024-03-12T06:45:01.991Z,2.13
2024-03-12T06:47:30.423Z,2.85
2024-03-12T06:50:00.217Z,2.63
2024-03-12T06:52:28.203Z,2.35
2024-03-12T06:54:55.730Z,2.58
2024-03-12T06:57:23.965Z,2.28
2024-03-12T06:59:51.628Z,2.33
2024-03-12T07:02:19.408Z,2.60
2024-03-12T07:04:50.170Z,2.10
2024-03-12T07:07:21.337Z,2.17
2024-03-12T07:09:49.780Z,2.58
2024-03-12T07:12:17.946Z,2.65
2024-03-12T07:14:47.216Z,2.15
2024-03-12T07:17:15.870Z,3.17
2024-03-12T07:19:44.432Z,2.80
2024-03-12T07:22:12.703Z,2.30
2024-03-12T07:24:43.063Z,2.42
2024-03-12T07:27:11.850Z,2.55
2024-03-12T07:29:39.164Z,2.17
2024-03-12T07:32:09.402Z,2.33
2024-03-12T07:34:38.475Z,1.80
2024-03-12T07:37:06.480Z,2.40
2024-03-12T07:39:36.060Z,2.28
2024-03-12T07:42:09.821Z,2.35
2024-03-12T07:44:38.305Z,2.53
2024-03-12T07:47:05.975Z,2.63
2024-03-12T07:49:38.373Z,2.70
2024-03-12T07:52:10.793Z,2.67
2024-03-12T07:54:42.157Z,3.30
2024-03-12T07:57:10.102Z,3.50
2024-03-12T07:59:37.948Z,2.53
2024-03-12T08:02:13.063Z,2.78
2024-03-12T08:04:46.059Z,2.40
2024-03-12T08:07:14.909Z,2.50
2024-03-12T08:09:45.788Z,2.25
2024-03-12T08:12:17.628Z,2.60
2024-03-12T08:14:46.072Z,3.20
2024-03-12T08:17:13.961Z,3.05
2024-03-12T08:19:44.775Z,2.70
2024-03-12T08:22:12.517Z,2.83
2024-03-12T08:24:40.636Z,2.28
2024-03-12T08:27:08.472Z,2.67
2024-03-12T08:29:35.966Z,2.40
2024-03-12T08:32:05.148Z,2.30
2024-03-12T08:34:32.524Z,2.78
2024-03-12T08:37:00.183Z,2.67
2024-03-12T08:39:29.829Z,1.70
2024-03-12T08:41:57.518Z,2.50
2024-03-12T08:44:25.262Z,2.58
2024-03-12T08:46:52.990Z,2.80
2024-03-12T08:49:20.380Z,2.20
2024-03-12T08:51:47.888Z,2.15
2024-03-12T08:54:15.614Z,2.35
2024-03-12T08:56:44.526Z,2.08
2024-03-12T09:02:05.928Z,1.98
2024-03-12T09:04:33.916Z,1.90
2024-03-12T09:07:02.008Z,2.40
2024-03-12T09:09:29.423Z,2.30
2024-03-12T09:11:58.323Z,1.60
2024-03-12T09:14:28.278Z,1.90
2024-03-12T09:16:55.644Z,1.60
2024-03-12T09:19:23.535Z,1.75
2024-03-12T09:21:50.832Z,1.45
2024-03-12T09:24:20.421Z,1.48
2024-03-12T09:26:47.782Z,1.30
2024-03-12T09:29:14.992Z,1.73
2024-03-12T09:31:43.657Z,1.25
2024-03-12T09:34:12.083Z,1.60
2024-03-12T09:36:39.994Z,1.55
2024-03-12T09:39:12.545Z,1.83
2024-03-12T09:41:53.707Z,1.70
2024-03-12T09:44:23.081Z,1.40
2024-03-12T09:46:50.680Z,1.65
2024-03-12T09:49:20.678Z,1.70
2024-03-12T09:51:48.280Z,1.90
2024-03-12T09:54:15.734Z,2.15
2024-03-12T09:56:44.465Z,1.90
2024-03-12T09:59:11.977Z,1.75
2024-03-12T10:01:42.028Z,1.65
2024-03-12T10:04:13.475Z,1.70
2024-03-12T10:06:41.210Z,2.00
2024-03-12T10:09:18.525Z,2.15
2024-03-12T10:11:48.757Z,1.98
2024-03-12T10:14:19.054Z,2.03
2024-03-12T10:16:46.722Z,1.77
2024-03-12T10:19:19.931Z,1.80
2024-03-12T10:24:23.056Z,1.65
2024-03-12T10:26:51.154Z,1.58
2024-03-12T10:29:22.420Z,1.35
2024-03-12T10:31:49.796Z,1.73
2024-03-12T10:34:22.007Z,2.08
2024-03-12T10:36:51.674Z,1.92
2024-03-12T10:39:27.456Z,2.38
2024-03-12T10:42:00.938Z,1.50
2024-03-12T10:44:30.302Z,1.35
2024-03-12T10:47:02.316Z,2.00
2024-03-12T10:49:30.767Z,1.80
2024-03-12T10:51:59.337Z,1.65
2024-03-12T10:54:32.108Z,1.40
2024-03-12T10:57:04.667Z,1.30
2024-03-12T10:59:34.403Z,1.20
2024-03-12T11:02:05.174Z,1.38
2024-03-12T11:04:36.734Z,1.52
2024-03-12T11:07:05.340Z,1.27
2024-03-12T11:09:34.889Z,1.15
2024-03-12T11:12:05.410Z,1.30
2024-03-12T11:14:33.000Z,1.02
2024-03-12T11:17:01.814Z,1.08
2024-03-12T11:19:30.959Z,0.93
2024-03-12T11:22:11.436Z,2.08
2024-03-12T11:24:46.516Z,1.17
2024-03-12T11:27:26.785Z,2.08
2024-03-12T11:30:07.251Z,2.00
2024-03-12T11:32:35.443Z,1.85
2024-03-12T11:35:18.265Z,2.00
2024-03-12T11:37:49.123Z,2.15
2024-03-12T11:40:33.749Z,1.80
2024-03-12T11:43:01.521Z,2.38
2024-03-12T11:45:43.940Z,2.15
2024-03-12T11:48:12.350Z,1.40
2024-03-12T11:50:41.429Z,1.90
2024-03-12T11:53:16.054Z,1.60
2024-03-12T11:56:17.261Z,1.60
2024-03-12T11:58:49.918Z,1.65
2024-03-12T12:01:20.632Z,1.55
2024-03-12T12:03:51.848Z,1.60
2024-03-12T12:06:20.948Z,1.75
2024-03-12T12:08:57.282Z,1.88
2024-03-12T12:11:30.040Z,1.88
2024-03-12T12:14:01.302Z,1.35
2024-03-12T12:16:30.406Z,1.55
2024-03-12T12:19:09.445Z,1.33
2024-03-12T12:21:37.949Z,1.10
2024-03-12T12:24:08.145Z,1.10
2024-03-12T12:26:37.768Z,1.25
2024-03-12T12:29:09.052Z,0.82
2024-03-12T12:31:38.031Z,1.10
2024-03-12T12:34:07.953Z,1.02
2024-03-12T12:36:41.814Z,1.20
2024-03-12T12:39:12.181Z,1.30
2024-03-12T12:41:45.577Z,1.45
2024-03-12T12:44:18.652Z,1.35
2024-03-12T12:46:49.670Z,1.17
2024-03-12T12:49:18.800Z,1.50
2024-03-12T12:51:47.852Z,1.17
2024-03-12T12:54:20.289Z,1.50
2024-03-12T12:56:48.276Z,1.40
2024-03-12T12:59:18.317Z,1.20
2024-03-12T13:01:49.815Z,1.30
2024-03-12T13:04:29.792Z,1.20
2024-03-12T13:07:02.695Z,1.00
2024-03-12T13:09:33.868Z,1.25
2024-03-12T13:12:05.349Z,1.17
2024-03-12T13:14:35.230Z,0.93
2024-03-12T13:17:05.752Z,1.20
2024-03-12T13:19:34.453Z,1.17
2024-03-12T13:22:10.569Z,1.10
2024-03-12T13:24:45.826Z,0.98
2024-03-12T13:27:16.874Z,1.10
2024-03-12T13:29:47.494Z,0.80
2024-03-12T13:32:16.184Z,1.60
2024-03-12T13:34:44.448Z,1.27
2024-03-12T13:37:14.060Z,1.40
2024-03-12T13:39:43.035Z,1.20
2024-03-12T13:42:11.971Z,0.93
2024-03-12T13:44:40.728Z,0.80
2024-03-12T13:47:09.702Z,0.80
2024-03-12T13:49:38.491Z,1.00
2024-03-12T13:52:06.376Z,0.98
2024-03-12T13:54:34.268Z,1.05
2024-03-12T13:57:01.954Z,1.00
2024-03-12T13:59:29.350Z,1.10
2024-03-12T14:01:58.095Z,1.10
2024-03-12T14:04:28.512Z,1.10
2024-03-12T14:06:57.415Z,1.20
2024-03-12T14:09:26.520Z,0.90
2024-03-12T14:11:54.008Z,0.90
2024-03-12T14:14:23.089Z,1.00
2024-03-12T14:16:53.047Z,0.90
2024-03-12T14:19:20.439Z,0.65
2024-03-12T14:21:48.204Z,0.90
2024-03-12T14:24:16.819Z,0.95
2024-03-12T14:26:44.660Z,0.82
2024-03-12T14:29:12.418Z,0.75
2024-03-12T14:31:42.989Z,0.85
2024-03-12T14:34:11.245Z,0.90
2024-03-12T14:36:39.197Z,1.15
2024-03-12T14:39:09.230Z,1.08
2024-03-12T14:41:37.438Z,0.90
2024-03-12T14:44:09.445Z,1.08
2024-03-12T14:46:42.418Z,0.90
2024-03-12T14:49:10.005Z,0.98
2024-03-12T14:51:37.353Z,0.82
2024-03-12T14:54:06.215Z,0.90
2024-03-12T14:56:34.990Z,1.00
2024-03-12T14:59:05.102Z,0.90
2024-03-12T15:01:32.966Z,0.90
2024-03-12T15:04:01.604Z,1.10
2024-03-12T15:06:28.920Z,1.13
2024-03-12T15:08:57.185Z,1.30
2024-03-12T15:11:24.714Z,0.93
2024-03-12T15:13:56.064Z,1.20
2024-03-12T15:16:23.510Z,1.50
2024-03-12T15:18:51.258Z,1.30
2024-03-12T15:21:19.281Z,1.48
2024-03-12T15:23:49.041Z,1.63
2024-03-12T15:26:16.354Z,1.70
2024-03-12T15:28:44.909Z,1.70
2024-03-12T15:31:13.427Z,1.40
2024-03-12T15:33:41.252Z,1.65
2024-03-12T15:36:09.346Z,1.67
2024-03-12T15:38:38.048Z,1.42
2024-03-12T15:41:09.368Z,1.40
2024-03-12T15:43:39.255Z,1.40
2024-03-12T15:46:14.423Z,1.65
2024-03-12T15:48:48.580Z,1.70
2024-03-12T15:51:21.446Z,1.60
2024-03-12T15:53:49.744Z,1.50
2024-03-12T15:56:17.569Z,1.20
2024-03-12T15:58:45.679Z,1.17
2024-03-12T16:01:14.722Z,1.20
2024-03-12T16:03:43.183Z,1.75
2024-03-12T16:06:10.687Z,1.40
2024-03-12T16:08:38.466Z,2.20
2024-03-12T16:11:05.831Z,1.85
2024-03-12T16:13:33.375Z,2.00
2024-03-12T16:16:01.034Z,1.65
2024-03-12T16:18:28.314Z,1.83
2024-03-12T16:20:56.725Z,2.08
2024-03-12T16:23:24.155Z,1.80
2024-03-12T16:25:51.349Z,1.60
2024-03-12T16:28:19.300Z,1.60
2024-03-12T16:30:46.950Z,1.63
2024-03-12T16:33:14.556Z,2.15
2024-03-12T16:35:41.820Z,2.47
2024-03-12T16:38:09.076Z,2.97
2024-03-12T16:40:37.030Z,2.65
2024-03-12T16:43:05.880Z,3.53
2024-03-12T16:45:33.155Z,3.50
2024-03-12T16:48:02.688Z,3.85
2024-03-12T16:50:30.056Z,3.30
2024-03-12T16:52:57.345Z,2.80
2024-03-12T16:55:25.002Z,2.67
2024-03-12T16:57:52.656Z,2.88
2024-03-12T17:00:20.313Z,3.45
2024-03-12T17:02:48.132Z,3.08
2024-03-12T17:05:26.147Z,3.97
2024-03-12T17:07:58.275Z,4.82
2024-03-12T17:10:27.147Z,4.03
2024-03-12T17:12:55.405Z,3.85
2024-03-12T17:15:24.849Z,2.92
2024-03-12T17:17:52.877Z,3.28
2024-03-12T17:20:20.291Z,3.38
2024-03-12T17:22:48.612Z,2.78
2024-03-12T17:25:18.589Z,2.88
2024-03-12T17:27:48.801Z,3.20
2024-03-12T17:30:16.556Z,2.90
2024-03-12T17:32:47.355Z,2.85
2024-03-12T17:35:16.272Z,2.60
2024-03-12T17:37:45.087Z,2.85
2024-03-12T17:40:16.124Z,2.50
2024-03-12T17:42:45.554Z,3.03
2024-03-12T17:45:14.063Z,3.15
2024-03-12T17:47:48.743Z,2.85
2024-03-12T17:50:24.232Z,3.33
2024-03-12T17:52:59.116Z,3.63
2024-03-12T17:55:29.599Z,3.40
2024-03-12T17:57:59.729Z,3.50
2024-03-12T18:00:28.434Z,3.75
2024-03-12T18:02:58.028Z,4.22
2024-03-12T18:05:25.989Z,3.40
2024-03-12T18:07:53.650Z,3.75
2024-03-12T18:10:24.146Z,3.40
2024-03-12T18:12:51.848Z,3.15
2024-03-12T18:15:21.584Z,3.45
2024-03-12T18:17:49.173Z,2.92
2024-03-12T18:20:31.401Z,2.55
2024-03-12T18:22:59.764Z,3.08
2024-03-12T18:25:27.139Z,3.58
2024-03-12T18:27:58.151Z,2.85
2024-03-12T18:30:26.807Z,2.67
2024-03-12T18:32:55.777Z,3.33
2024-03-12T18:35:23.456Z,2.90
2024-03-12T18:37:52.295Z,2.80
2024-03-12T18:40:20.997Z,2.60
2024-03-12T18:42:54.796Z,2.88
2024-03-12T18:45:25.599Z,2.85
2024-03-12T18:47:56.800Z,2.50
2024-03-12T18:50:29.809Z,2.83
2024-03-12T18:53:02.621Z,3.13
2024-03-12T18:55:32.683Z,3.08
2024-03-12T18:58:03.509Z,3.10
2024-03-12T19:00:37.342Z,2.88
2024-03-12T19:03:16.701Z,3.55
2024-03-12T19:05:50.438Z,3.58
2024-03-12T19:10:52.946Z,2.92
2024-03-12T19:13:25.324Z,3.05
2024-03-12T19:15:55.050Z,3.10
2024-03-12T19:18:28.097Z,2.60
2024-03-12T19:20:58.006Z,2.90
2024-03-12T19:23:27.806Z,3.20
2024-03-12T19:25:59.795Z,3.63
2024-03-12T19:28:29.914Z,3.10
2024-03-12T19:33:48.396Z,3.40
2024-03-12T19:36:29.678Z,3.70
2024-03-12T19:38:58.452Z,3.13
2024-03-12T19:41:26.191Z,2.90
2024-03-12T19:43:54.735Z,3.35
2024-03-12T19:46:22.450Z,2.90
2024-03-12T19:48:49.942Z,3.08
2024-03-12T19:51:18.765Z,3.10
2024-03-12T19:53:46.491Z,2.72
2024-03-12T19:56:14.123Z,3.25
2024-03-12T19:58:41.442Z,3.05
2024-03-12T20:01:11.820Z,2.47
2024-03-12T20:03:39.354Z,2.78
2024-03-12T20:06:06.863Z,2.30
2024-03-12T20:08:34.354Z,2.47
2024-03-12T20:11:01.775Z,2.83
2024-03-12T20:13:44.648Z,1.55
2024-03-12T20:16:15.879Z,1.83
2024-03-12T20:18:44.642Z,2.00
2024-03-12T20:21:12.488Z,1.98
2024-03-12T20:23:40.837Z,2.38
2024-03-12T20:26:08.183Z,3.42
2024-03-12T20:28:35.903Z,2.90
2024-03-12T20:31:04.161Z,3.28
2024-03-12T20:33:32.584Z,2.80
2024-03-12T20:36:02.688Z,3.00
2024-03-12T20:38:30.257Z,3.58
2024-03-12T20:40:57.613Z,3.67
2024-03-12T20:43:25.066Z,3.20
2024-03-12T20:45:52.545Z,3.13
2024-03-12T20:48:19.956Z,3.72
2024-03-12T20:50:47.450Z,3.50
2024-03-12T20:53:15.577Z,3.63
2024-03-12T20:55:43.240Z,3.20
2024-03-12T20:58:10.741Z,3.70
2024-03-12T21:00:39.404Z,3.30
2024-03-12T21:03:10.823Z,3.42
2024-03-12T21:05:39.295Z,3.80
2024-03-12T21:08:08.508Z,3.83
2024-03-12T21:10:36.051Z,4.93
2024-03-12T21:13:03.466Z,5.03
2024-03-12T21:15:31.029Z,5.20
2024-03-12T21:17:58.500Z,5.68
2024-03-12T21:20:29.341Z,5.80
2024-03-12T21:22:56.826Z,5.00
2024-03-12T21:25:24.219Z,4.53
2024-03-12T21:27:54.716Z,4.70
2024-03-12T21:30:25.266Z,4.45
2024-03-12T21:32:54.746Z,5.40
2024-03-12T21:35:25.185Z,5.00
2024-03-12T21:37:55.837Z,4.72
2024-03-12T21:40:24.241Z,4.10
2024-03-12T21:42:51.874Z,4.07
2024-03-12T21:45:20.595Z,3.70
2024-03-12T21:47:49.158Z,4.30
2024-03-12T21:50:17.664Z,4.10
2024-03-12T21:52:46.590Z,3.58
2024-03-12T21:55:14.742Z,3.75
2024-03-12T21:57:44.940Z,3.40
2024-03-12T22:00:20.604Z,3.95
2024-03-12T22:02:49.840Z,3.28
2024-03-12T22:05:17.963Z,3.53
2024-03-12T22:07:45.874Z,3.92
2024-03-12T22:10:13.874Z,3.85
2024-03-12T22:12:42.276Z,4.00
2024-03-12T22:15:13.261Z,3.85
2024-03-12T22:17:44.250Z,3.90
2024-03-12T22:20:20.135Z,3.78
2024-03-12T22:22:50.853Z,3.72
2024-03-12T22:25:19.952Z,3.80
2024-03-12T22:27:49.662Z,4.20
2024-03-12T22:30:18.095Z,3.80
2024-03-12T22:32:46.469Z,4.10
2024-03-12T22:35:14.206Z,3.22
2024-03-12T22:37:44.920Z,3.50
2024-03-12T22:40:13.959Z,3.92
2024-03-12T22:42:42.175Z,3.47
2024-03-12T22:45:12.894Z,4.07
2024-03-12T22:47:41.091Z,3.83
2024-03-12T22:50:10.181Z,3.97
2024-03-12T22:52:38.194Z,4.00
2024-03-12T22:55:09.071Z,3.97
2024-03-12T22:57:40.033Z,3.92
2024-03-12T23:00:28.907Z,3.80
2024-03-12T23:03:01.468Z,3.60
2024-03-12T23:05:29.478Z,3.90
2024-03-12T23:07:58.568Z,3.40
2024-03-12T23:10:26.328Z,3.90
2024-03-12T23:12:58.062Z,3.20
2024-03-12T23:15:27.217Z,3.78
2024-03-12T23:17:55.681Z,3.55
2024-03-12T23:20:24.095Z,3.47
2024-03-12T23:22:52.685Z,3.38
2024-03-12T23:25:23.390Z,3.10
2024-03-12T23:27:51.257Z,3.28
2024-03-12T23:30:18.646Z,3.72
2024-03-12T23:32:46.543Z,3.70
2024-03-12T23:35:13.899Z,3.90
2024-03-12T23:37:45.005Z,3.67
2024-03-12T23:40:12.455Z,3.78
2024-03-12T23:42:39.823Z,4.00
2024-03-12T23:45:10.826Z,3.65
2024-03-12T23:47:38.508Z,3.00
2024-03-12T23:50:08.983Z,3.10
2024-03-12T23:52:36.707Z,2.72
2024-03-12T23:55:05.190Z,3.25
2024-03-12T23:57:33.020Z,3.38
